createdAt,value
2024-04-18T00:00:22.243Z,294.08
2024-04-18T00:02:51.936Z,294.92
2024-04-18T00:05:33.944Z,295.25
2024-04-18T00:08:03.690Z,294.27
2024-04-18T00:10:30.821Z,293.05
2024-04-18T00:13:00.518Z,292.10
2024-04-18T00:15:28.071Z,290.40
2024-04-18T00:17:58.254Z,292.17
2024-04-18T00:20:25.814Z,288.20
2024-04-18T00:22:59.178Z,292.25
2024-04-18T00:25:32.672Z,289.55
2024-04-18T00:28:02.479Z,294.25
2024-04-18T00:30:42.949Z,289.52
2024-04-18T00:33:13.081Z,290.05
2024-04-18T00:35:40.780Z,290.13
2024-04-18T00:38:19.385Z,291.23
2024-04-18T00:40:52.027Z,291.30
2024-04-18T00:43:23.032Z,293.08
2024-04-18T00:45:53.625Z,290.67
2024-04-18T00:48:24.594Z,288.00
2024-04-18T00:50:53.296Z,290.35
2024-04-18T00:53:27.912Z,291.48
2024-04-18T00:55:55.750Z,290.98
2024-04-18T00:58:44.762Z,290.30
2024-04-18T01:01:22.025Z,293.10
2024-04-18T01:03:59.138Z,294.45
2024-04-18T01:06:42.489Z,291.27
2024-04-18T01:09:22.935Z,293.60
2024-04-18T01:12:11.185Z,298.17
2024-04-18T01:14:38.372Z,291.70
2024-04-18T01:17:08.757Z,290.73
2024-04-18T01:19:35.922Z,293.63
2024-04-18T01:22:06.331Z,295.83
2024-04-18T01:24:36.332Z,292.90
2024-04-18T01:27:08.979Z,293.23
2024-04-18T01:29:43.237Z,294.52
2024-04-18T01:32:32.898Z,293.10
2024-04-18T01:35:00.167Z,293.20
2024-04-18T01:37:49.000Z,290.55
2024-04-18T01:40:16.554Z,292.48
2024-04-18T01:42:48.984Z,292.52
2024-04-18T01:45:34.106Z,290.70
2024-04-18T01:48:16.254Z,292.48
2024-04-18T01:51:04.249Z,290.63
2024-04-18T01:53:37.695Z,292.98
2024-04-18T01:56:18.212Z,292.92
2024-04-18T01:58:51.150Z,294.45
2024-04-18T02:01:24.075Z,290.83
2024-04-18T02:03:54.542Z,292.67
2024-04-18T02:06:21.725Z,293.02
2024-04-18T02:08:51.548Z,292.63
2024-04-18T02:11:41.311Z,293.02
2024-04-18T02:14:17.105Z,294.02
2024-04-18T02:16:44.462Z,289.88
2024-04-18T02:19:26.599Z,297.20
2024-04-18T02:22:21.987Z,292.40
2024-04-18T02:25:09.927Z,292.33
2024-04-18T02:27:40.042Z,292.42
2024-04-18T02:30:28.219Z,292.55
2024-04-18T02:33:13.797Z,293.50
2024-04-18T02:35:46.750Z,293.50
2024-04-18T02:38:34.722Z,293.40
2024-04-18T02:41:03.025Z,292.27
2024-04-18T02:43:51.729Z,297.35
2024-04-18T02:46:22.158Z,292.25
2024-04-18T02:49:10.307Z,292.00
2024-04-18T02:51:55.663Z,290.95
2024-04-18T02:54:43.989Z,294.58
2024-04-18T02:57:11.266Z,291.95
2024-04-18T02:59:41.195Z,295.73
2024-04-18T03:02:29.074Z,290.50
2024-04-18T03:05:20.531Z,294.70
2024-04-18T03:07:55.861Z,293.98
2024-04-18T03:10:25.727Z,292.95
2024-04-18T03:13:01.845Z,297.45
2024-04-18T03:15:50.257Z,295.73
2024-04-18T03:18:20.161Z,293.00
2024-04-18T03:20:58.506Z,293.90
2024-04-18T03:23:41.678Z,292.08
2024-04-18T03:26:12.215Z,294.15
2024-04-18T03:28:39.481Z,292.20
2024-04-18T03:31:09.303Z,293.35
2024-04-18T03:33:39.070Z,293.80
2024-04-18T03:36:09.471Z,294.92
2024-04-18T03:38:39.194Z,291.58
2024-04-18T03:41:08.901Z,292.13
2024-04-18T03:44:00.128Z,297.20
2024-04-18T03:46:29.867Z,296.00
2024-04-18T03:49:05.140Z,293.45
2024-04-18T03:51:32.354Z,293.17
2024-04-18T03:54:05.630Z,293.20
2024-04-18T03:56:51.571Z,291.92
2024-04-18T03:59:21.312Z,295.10
2024-04-18T04:01:48.673Z,292.70
2024-04-18T04:04:21.169Z,295.25
2024-04-18T04:06:48.467Z,295.08
2024-04-18T04:09:18.206Z,294.70
2024-04-18T04:11:45.363Z,294.48
2024-04-18T04:14:15.102Z,294.92
2024-04-18T04:16:54.382Z,293.40
2024-04-18T04:19:26.823Z,291.30
2024-04-18T04:21:54.466Z,292.92
2024-04-18T04:24:24.270Z,292.10
2024-04-18T04:26:51.654Z,293.02
2024-04-18T04:29:21.423Z,291.80
2024-04-18T04:31:48.643Z,292.42
2024-04-18T04:34:18.435Z,291.27
2024-04-18T04:36:48.365Z,289.60
2024-04-18T04:39:18.197Z,289.05
2024-04-18T04:41:45.382Z,290.95
2024-04-18T04:44:15.091Z,289.30
2024-04-18T04:46:48.566Z,288.27
2024-04-18T04:49:21.221Z,289.05
2024-04-18T04:52:03.822Z,292.10
2024-04-18T04:54:43.929Z,291.23
2024-04-18T04:57:11.462Z,289.50
2024-04-18T04:59:41.655Z,289.20
2024-04-18T05:02:08.914Z,290.67
2024-04-18T05:07:34.361Z,289.23
2024-04-18T05:10:22.905Z,289.42
2024-04-18T05:12:51.318Z,290.73
2024-04-18T05:15:40.515Z,288.80
2024-04-18T05:18:10.801Z,290.45
2024-04-18T05:20:41.530Z,288.88
2024-04-18T05:23:11.278Z,287.85
2024-04-18T05:25:41.022Z,288.13
2024-04-18T05:28:31.541Z,291.40
2024-04-18T05:31:04.815Z,290.38
2024-04-18T05:33:35.385Z,291.70
2024-04-18T05:36:05.866Z,289.45
2024-04-18T05:38:38.202Z,289.75
2024-04-18T05:41:08.100Z,290.73
2024-04-18T05:43:53.125Z,288.92
2024-04-18T05:46:22.995Z,289.27
2024-04-18T05:48:52.952Z,297.38
2024-04-18T05:51:20.221Z,290.67
2024-04-18T05:54:18.341Z,291.90
2024-04-18T05:57:07.181Z,291.23
2024-04-18T05:59:55.223Z,287.77
2024-04-18T06:02:25.370Z,287.52
2024-04-18T06:04:55.174Z,291.85
2024-04-18T06:07:46.143Z,293.92
2024-04-18T06:10:19.129Z,290.85
2024-04-18T06:12:49.014Z,291.08
2024-04-18T06:15:19.474Z,292.45
2024-04-18T06:17:46.834Z,293.95
2024-04-18T06:20:17.108Z,292.13
2024-04-18T06:22:46.838Z,295.05
2024-04-18T06:28:02.655Z,295.92
2024-04-18T06:30:32.494Z,292.45
2024-04-18T06:33:02.387Z,292.95
2024-04-18T06:35:32.181Z,293.75
2024-04-18T06:38:02.133Z,294.17
2024-04-18T06:40:34.495Z,292.15
2024-04-18T06:43:04.296Z,294.35
2024-04-18T06:45:34.743Z,293.65
2024-04-18T06:48:04.717Z,294.27
2024-04-18T06:50:34.561Z,297.70
2024-04-18T06:53:04.266Z,298.27
2024-04-18T06:55:37.517Z,295.17
2024-04-18T06:58:07.593Z,296.55
2024-04-18T07:00:39.111Z,294.08
2024-04-18T07:03:13.120Z,293.67
2024-04-18T07:05:54.992Z,292.85
2024-04-18T07:08:25.367Z,298.02
2024-04-18T07:11:00.051Z,294.58
2024-04-18T07:13:32.573Z,298.95
2024-04-18T07:16:04.555Z,294.80
2024-04-18T07:18:52.893Z,294.10
2024-04-18T07:21:22.735Z,294.98
2024-04-18T07:23:49.993Z,294.23
2024-04-18T07:26:41.146Z,293.70
2024-04-18T07:29:10.989Z,295.80
2024-04-18T07:31:40.885Z,295.83
2024-04-18T07:34:17.063Z,297.35
2024-04-18T07:36:48.920Z,296.02
2024-04-18T07:39:20.027Z,296.98
2024-04-18T07:41:52.726Z,297.45
2024-04-18T07:44:24.700Z,296.45
2024-04-18T07:46:54.935Z,296.13
2024-04-18T07:49:24.807Z,295.33
2024-04-18T07:54:26.545Z,295.48
2024-04-18T07:56:56.865Z,296.25
2024-04-18T07:59:27.393Z,295.17
2024-04-18T08:01:59.737Z,297.33
2024-04-18T08:04:50.301Z,295.70
2024-04-18T08:07:22.525Z,297.73
2024-04-18T08:09:57.264Z,297.15
2024-04-18T08:12:35.251Z,295.60
2024-04-18T08:15:14.132Z,300.73
2024-04-18T08:17:46.962Z,297.35
2024-04-18T08:20:16.767Z,298.13
2024-04-18T08:22:46.496Z,297.05
2024-04-18T08:25:16.274Z,295.63
2024-04-18T08:27:48.753Z,297.40
2024-04-18T08:30:18.915Z,299.00
2024-04-18T08:32:48.734Z,299.15
2024-04-18T08:35:20.323Z,299.63
2024-04-18T08:37:51.596Z,300.60
2024-04-18T08:40:21.587Z,303.63
2024-04-18T08:42:53.916Z,305.45
2024-04-18T08:45:25.796Z,307.48
2024-04-18T08:47:56.546Z,308.10
2024-04-18T08:50:26.932Z,312.25
2024-04-18T08:52:58.290Z,311.48
2024-04-18T08:55:28.127Z,310.08
2024-04-18T08:58:05.751Z,311.00
2024-04-18T09:00:36.330Z,311.08
2024-04-18T09:03:08.212Z,311.08
2024-04-18T09:05:39.512Z,310.98
2024-04-18T09:08:10.986Z,310.25
2024-04-18T09:10:41.457Z,309.23
2024-04-18T09:13:14.111Z,307.25
2024-04-18T09:15:43.818Z,308.17
2024-04-18T09:18:13.602Z,307.65
2024-04-18T09:20:44.732Z,308.20
2024-04-18T09:23:14.596Z,316.17
2024-04-18T09:25:45.976Z,307.33
2024-04-18T09:28:21.649Z,308.13
2024-04-18T09:30:58.416Z,308.10
2024-04-18T09:33:28.960Z,311.45
2024-04-18T09:36:01.189Z,310.58
2024-04-18T09:38:33.980Z,312.02
2024-04-18T09:41:08.338Z,312.77
2024-04-18T09:43:48.261Z,313.75
2024-04-18T09:46:19.676Z,313.15
2024-04-18T09:48:50.103Z,311.40
2024-04-18T09:51:20.922Z,312.90
2024-04-18T09:53:50.846Z,311.88
2024-04-18T09:56:22.919Z,312.58
2024-04-18T09:58:56.279Z,312.75
2024-04-18T10:01:26.508Z,311.48
2024-04-18T10:03:56.556Z,312.23
2024-04-18T10:06:34.769Z,311.67
2024-04-18T10:09:07.134Z,310.42
2024-04-18T10:11:37.813Z,312.95
2024-04-18T10:14:11.323Z,310.90
2024-04-18T10:16:50.204Z,311.02
2024-04-18T10:19:24.771Z,314.65
2024-04-18T10:22:11.707Z,316.83
2024-04-18T10:24:53.698Z,316.17
2024-04-18T10:30:03.045Z,316.33
2024-04-18T10:32:34.491Z,318.13
2024-04-18T10:35:04.558Z,315.92
2024-04-18T10:37:34.259Z,315.88
2024-04-18T10:40:06.571Z,320.40
2024-04-18T10:42:40.742Z,320.15
2024-04-18T10:45:11.365Z,326.58
2024-04-18T10:47:44.203Z,338.20
2024-04-18T10:50:14.156Z,339.55
2024-04-18T10:52:43.971Z,346.52
2024-04-18T10:55:13.746Z,346.98
2024-04-18T10:57:43.604Z,347.25
2024-04-18T11:00:19.983Z,346.80
2024-04-18T11:02:49.856Z,346.08
2024-04-18T11:05:19.791Z,344.55
2024-04-18T11:07:52.071Z,347.92
2024-04-18T11:10:22.339Z,348.98
2024-04-18T11:12:52.278Z,349.63
2024-04-18T11:15:24.689Z,348.10
2024-04-18T11:17:55.203Z,347.77
2024-04-18T11:20:25.251Z,352.48
2024-04-18T11:23:05.516Z,350.15
2024-04-18T11:25:43.157Z,348.48
2024-04-18T11:28:13.153Z,348.35
2024-04-18T11:30:46.464Z,348.80
2024-04-18T11:33:16.418Z,350.23
2024-04-18T11:35:46.682Z,349.15
2024-04-18T11:38:20.371Z,348.30
2024-04-18T11:40:50.146Z,344.52
2024-04-18T11:43:19.976Z,345.52
2024-04-18T11:45:52.438Z,344.08
2024-04-18T11:48:19.773Z,341.85
2024-04-18T11:50:50.703Z,339.73
2024-04-18T11:53:20.454Z,339.75
2024-04-18T11:55:50.231Z,338.00
2024-04-18T11:58:32.139Z,338.17
2024-04-18T12:01:04.607Z,337.67
2024-04-18T12:03:44.744Z,338.67
2024-04-18T12:06:33.214Z,340.27
2024-04-18T12:09:00.612Z,337.80
2024-04-18T12:11:33.952Z,339.05
2024-04-18T12:14:15.844Z,339.58
2024-04-18T12:17:00.694Z,339.98
2024-04-18T12:19:45.908Z,339.63
2024-04-18T12:22:34.850Z,339.35
2024-04-18T12:25:18.111Z,341.58
2024-04-18T12:27:48.298Z,341.05
2024-04-18T12:30:33.678Z,345.23
2024-04-18T12:33:24.445Z,343.88
2024-04-18T12:35:54.379Z,346.20
2024-04-18T12:38:24.466Z,351.65
2024-04-18T12:41:03.846Z,357.80
2024-04-18T12:43:35.958Z,354.52
2024-04-18T12:46:26.008Z,353.95
2024-04-18T12:48:59.229Z,354.33
2024-04-18T12:51:29.235Z,349.42
2024-04-18T12:53:59.937Z,352.08
2024-04-18T12:56:50.181Z,353.30
2024-04-18T12:59:26.931Z,352.17
2024-04-18T13:01:57.530Z,352.58
2024-04-18T13:04:32.419Z,356.33
2024-04-18T13:06:59.954Z,361.20
2024-04-18T13:09:33.419Z,358.20
2024-04-18T13:12:04.180Z,364.75
2024-04-18T13:14:53.653Z,365.40
2024-04-18T13:17:23.771Z,367.13
2024-04-18T13:19:56.327Z,366.10
2024-04-18T13:22:26.202Z,372.50
2024-04-18T13:24:55.950Z,405.10
2024-04-18T13:27:31.037Z,413.90
2024-04-18T13:30:02.375Z,372.17
2024-04-18T13:32:36.358Z,368.63
2024-04-18T13:35:10.018Z,370.40
2024-04-18T13:37:40.196Z,363.23
2024-04-18T13:40:19.026Z,362.42
2024-04-18T13:43:02.653Z,360.48
2024-04-18T13:45:34.329Z,358.08
2024-04-18T13:48:04.903Z,352.83
2024-04-18T13:50:52.762Z,353.27
2024-04-18T13:53:22.570Z,354.83
2024-04-18T13:55:52.554Z,350.30
2024-04-18T13:58:21.123Z,351.52
2024-04-18T14:01:02.137Z,352.63
2024-04-18T14:03:32.786Z,351.35
2024-04-18T14:06:12.083Z,352.02
2024-04-18T14:08:42.336Z,353.90
2024-04-18T14:11:31.997Z,351.08
2024-04-18T14:14:09.089Z,349.70
2024-04-18T14:16:55.203Z,346.00
2024-04-18T14:19:36.283Z,348.92
2024-04-18T14:22:11.247Z,343.27
2024-04-18T14:24:41.589Z,345.00
2024-04-18T14:27:20.038Z,343.50
2024-04-18T14:30:02.239Z,342.73
2024-04-18T14:32:37.935Z,339.88
2024-04-18T14:35:09.852Z,339.33
2024-04-18T14:37:42.197Z,339.88
2024-04-18T14:40:13.641Z,339.92
2024-04-18T14:42:43.925Z,342.55
2024-04-18T14:45:15.143Z,340.52
2024-04-18T14:47:44.954Z,340.23
2024-04-18T14:50:14.896Z,340.75
2024-04-18T14:52:47.266Z,343.63
2024-04-18T14:55:32.405Z,344.25
2024-04-18T14:58:16.727Z,344.95
2024-04-18T15:00:54.191Z,346.13
2024-04-18T15:03:24.507Z,343.35
2024-04-18T15:05:58.279Z,345.30
2024-04-18T15:08:44.843Z,346.85
2024-04-18T15:11:26.466Z,342.85
2024-04-18T15:14:07.337Z,334.75
2024-04-18T15:16:37.624Z,334.77
2024-04-18T15:19:07.559Z,338.17
2024-04-18T15:21:56.226Z,337.40
2024-04-18T15:24:26.322Z,335.55
2024-04-18T15:27:07.099Z,334.98
2024-04-18T15:29:37.608Z,333.25
2024-04-18T15:32:25.711Z,332.73
2024-04-18T15:35:14.510Z,335.33
2024-04-18T15:38:03.063Z,334.05
2024-04-18T15:40:38.446Z,337.10
2024-04-18T15:43:08.501Z,336.52
2024-04-18T15:45:42.484Z,337.88
2024-04-18T15:48:24.579Z,335.73
2024-04-18T15:50:57.152Z,332.67
2024-04-18T15:53:32.951Z,335.38
2024-04-18T15:56:12.566Z,337.05
2024-04-18T15:59:02.785Z,335.63
2024-04-18T16:01:50.738Z,338.60
2024-04-18T16:04:43.873Z,337.50
2024-04-18T16:07:13.842Z,337.50
2024-04-18T16:09:56.097Z,337.15
2024-04-18T16:12:28.599Z,336.48
2024-04-18T16:15:06.641Z,337.40
2024-04-18T16:17:37.209Z,338.17
2024-04-18T16:20:13.468Z,338.48
2024-04-18T16:22:43.625Z,339.48
2024-04-18T16:25:33.417Z,338.25
2024-04-18T16:28:07.002Z,339.42
2024-04-18T16:30:48.588Z,338.25
2024-04-18T16:33:18.728Z,338.20
2024-04-18T16:35:48.590Z,338.75
2024-04-18T16:38:18.713Z,339.20
2024-04-18T16:40:53.383Z,336.90
2024-04-18T16:43:38.048Z,335.48
2024-04-18T16:46:09.167Z,334.20
2024-04-18T16:48:40.044Z,333.85
2024-04-18T16:51:10.130Z,331.13
2024-04-18T16:53:59.066Z,333.83
2024-04-18T16:56:37.511Z,333.45
2024-04-18T16:59:11.180Z,331.88
2024-04-18T17:01:41.033Z,331.23
2024-04-18T17:04:08.253Z,330.88
2024-04-18T17:06:45.569Z,332.90
2024-04-18T17:09:18.644Z,331.42
2024-04-18T17:11:48.768Z,331.13
2024-04-18T17:14:41.448Z,329.95
2024-04-18T17:17:11.190Z,330.00
2024-04-18T17:19:58.999Z,334.35
2024-04-18T17:22:28.914Z,328.80
2024-04-18T17:24:56.097Z,329.83
2024-04-18T17:27:26.848Z,330.20
2024-04-18T17:29:59.603Z,331.70
2024-04-18T17:32:29.398Z,328.25
2024-04-18T17:34:59.200Z,327.55
2024-04-18T17:37:43.874Z,329.05
2024-04-18T17:40:25.388Z,331.38
2024-04-18T17:43:01.194Z,330.58
2024-04-18T17:45:34.241Z,329.27
2024-04-18T17:48:16.474Z,330.23
2024-04-18T17:50:46.333Z,330.05
2024-04-18T17:53:16.067Z,326.20
2024-04-18T17:55:45.827Z,327.63
2024-04-18T17:58:15.611Z,328.77
2024-04-18T18:00:48.327Z,327.65
2024-04-18T18:03:18.268Z,327.52
2024-04-18T18:05:45.678Z,329.40
2024-04-18T18:08:30.804Z,330.95
2024-04-18T18:11:20.638Z,330.33
2024-04-18T18:13:53.206Z,331.23
2024-04-18T18:16:26.192Z,328.85
2024-04-18T18:18:56.113Z,331.65
2024-04-18T18:21:26.504Z,332.13
2024-04-18T18:23:56.310Z,334.48
2024-04-18T18:26:40.060Z,332.45
2024-04-18T18:29:09.185Z,329.75
2024-04-18T18:32:00.236Z,334.00
2024-04-18T18:34:27.463Z,331.13
2024-04-18T18:36:57.262Z,333.48
2024-04-18T18:39:29.735Z,333.75
2024-04-18T18:41:57.245Z,335.15
2024-04-18T18:44:28.680Z,332.23
2024-04-18T18:46:58.604Z,335.92
2024-04-18T18:49:48.397Z,333.92
2024-04-18T18:52:15.645Z,331.83
2024-04-18T18:54:45.575Z,332.00
2024-04-18T18:57:12.894Z,332.67
2024-04-18T18:59:46.177Z,333.42
2024-04-18T19:02:16.348Z,331.33
2024-04-18T19:05:04.725Z,332.77
2024-04-18T19:07:31.919Z,334.58
2024-04-18T19:10:01.799Z,332.90
2024-04-18T19:12:29.103Z,332.70
2024-04-18T19:15:01.315Z,333.15
2024-04-18T19:17:32.087Z,334.77
2024-04-18T19:20:02.110Z,337.52
2024-04-18T19:22:29.270Z,335.40
2024-04-18T19:24:58.984Z,335.20
2024-04-18T19:27:28.853Z,332.60
2024-04-18T19:29:57.337Z,336.67
2024-04-18T19:32:28.090Z,333.67
2024-04-18T19:34:57.956Z,334.65
2024-04-18T19:37:27.801Z,336.08
2024-04-18T19:39:56.244Z,335.23
2024-04-18T19:42:27.077Z,336.60
2024-04-18T19:44:54.267Z,334.70
2024-04-18T19:47:24.071Z,335.75
2024-04-18T19:49:51.354Z,335.15
2024-04-18T19:52:23.723Z,333.02
2024-04-18T19:54:51.444Z,334.55
2024-04-18T19:57:21.406Z,338.40
2024-04-18T19:59:48.656Z,336.92
2024-04-18T20:02:18.594Z,340.02
2024-04-18T20:04:45.830Z,340.80
2024-04-18T20:07:15.564Z,340.55
2024-04-18T20:09:45.432Z,340.55
2024-04-18T20:12:15.340Z,337.23
2024-04-18T20:15:02.571Z,336.05
2024-04-18T20:17:32.323Z,338.33
2024-04-18T20:19:59.620Z,337.25
2024-04-18T20:22:29.373Z,337.13
2024-04-18T20:24:59.121Z,338.50
2024-04-18T20:27:44.757Z,338.75
2024-04-18T20:30:12.848Z,338.65
2024-04-18T20:33:02.661Z,339.35
2024-04-18T20:35:32.498Z,337.77
2024-04-18T20:38:02.476Z,338.77
2024-04-18T20:40:32.300Z,340.73
2024-04-18T20:43:02.004Z,340.17
2024-04-18T20:45:31.550Z,342.20
2024-04-18T20:48:01.740Z,340.20
2024-04-18T20:50:29.020Z,342.35
2024-04-18T20:52:58.970Z,341.95
2024-04-18T20:55:26.795Z,341.85
2024-04-18T20:57:59.387Z,342.63
2024-04-18T21:00:26.859Z,345.08
2024-04-18T21:02:56.848Z,341.63
2024-04-18T21:05:23.997Z,344.67
2024-04-18T21:07:53.778Z,345.65
2024-04-18T21:10:21.123Z,340.77
2024-04-18T21:12:50.907Z,340.10
2024-04-18T21:15:20.774Z,341.55
2024-04-18T21:17:50.699Z,342.52
2024-04-18T21:20:18.015Z,343.42
2024-04-18T21:22:49.350Z,344.30
2024-04-18T21:25:16.812Z,341.88
2024-04-18T21:27:46.546Z,344.35
2024-04-18T21:30:16.384Z,343.38
2024-04-18T21:32:46.304Z,344.20
2024-04-18T21:35:34.829Z,348.10
2024-04-18T21:38:02.124Z,345.13
2024-04-18T21:40:31.969Z,345.00
2024-04-18T21:43:03.840Z,345.67
2024-04-18T21:45:34.616Z,350.58
2024-04-18T21:48:05.696Z,348.23
2024-04-18T21:50:35.640Z,351.95
2024-04-18T21:53:02.976Z,348.45
2024-04-18T21:55:33.046Z,346.92
2024-04-18T21:58:00.165Z,348.75
2024-04-18T22:00:30.138Z,347.67
2024-04-18T22:02:57.326Z,346.83
2024-04-18T22:05:29.747Z,348.70
2024-04-18T22:08:01.639Z,348.20
2024-04-18T22:10:31.486Z,345.90
2024-04-18T22:12:58.692Z,345.63
2024-04-18T22:15:28.536Z,347.70
2024-04-18T22:17:58.465Z,347.30
2024-04-18T22:20:28.480Z,348.90
2024-04-18T22:23:16.235Z,347.27
2024-04-18T22:25:46.034Z,347.58
2024-04-18T22:28:15.757Z,348.40
2024-04-18T22:30:43.038Z,353.77
2024-04-18T22:33:12.946Z,348.20
2024-04-18T22:35:42.770Z,349.25
2024-04-18T22:38:12.636Z,350.35
2024-04-18T22:40:39.799Z,351.25
2024-04-18T22:43:09.650Z,351.35
2024-04-18T22:45:39.485Z,350.05
2024-04-18T22:48:07.727Z,350.25
2024-04-18T22:50:38.234Z,344.80
2024-04-18T22:53:08.081Z,346.98
2024-04-18T22:55:37.756Z,347.00
2024-04-18T22:58:07.849Z,344.75
2024-04-18T23:00:39.359Z,344.27
2024-04-18T23:03:07.535Z,346.42
2024-04-18T23:05:40.627Z,343.70
2024-04-18T23:08:10.486Z,347.23
2024-04-18T23:10:40.367Z,346.02
2024-04-18T23:13:07.545Z,345.23
2024-04-18T23:18:24.575Z,346.33
2024-04-18T23:20:55.829Z,346.73
2024-04-18T23:26:05.439Z,349.00
2024-04-18T23:28:32.609Z,346.75
2024-04-18T23:31:02.543Z,344.98
2024-04-18T23:33:32.327Z,344.35
2024-04-18T23:36:01.279Z,350.63
2024-04-18T23:41:01.009Z,346.25
2024-04-18T23:43:30.787Z,346.83
2024-04-18T23:45:57.992Z,349.65
2024-04-18T23:48:27.739Z,346.10
2024-04-18T23:50:55.029Z,350.33
2024-04-18T23:53:24.771Z,348.70
2024-04-18T23:55:51.959Z,348.23
2024-04-18T23:58:24.330Z,350.88
